Terminal Aerodrome Forecast
Issued by NWS

Home | Current Version | Previous Version | Text Only | Print | Product List | Glossary On
Versions: 1 2 3 4 5 6 7 8 9 10 11 12 13 14 15 16 17 18 19 20 21 22 23 24 25 26 27 28 29 30 31
000
FTUS45 KGJT 060302 AAB
TAFASE
TAF AMD
KASE 060302Z 0603/0624 34006KT P6SM VCTS BKN050CB BKN080
      TEMPO 0603/0605 VRB15G30KT 5SM TSRA BR BKN025CB
     FM060500 19005KT P6SM SCT050 BKN090
     FM061800 32006KT P6SM VCTS SCT060CB BKN090=

USA.gov is the U.S. government's official web portal to all federal, state and local government web resources and services.